^^
Station Historical Data
Daily Summary for January 10, 2018 Units:  English    Metric   Both
« Previous Day
Next Day »
Daily Weekly Monthly Yearly Custom
  High: Low: Average:
Temperature: TemperatureF °F 66.0 °F 87.4 °F
Dew Point: DewpointF °F 23.0 °F 27.4 °F
Humidity: Humidity% 7% 12%
Wind Speed: WindSpeedMPHmph 0.0mph 1.3mph
Wind Gust: WindSpeedGustMPHmph - -
Wind- - SE
Pressure: PressureIn in 29.56 in -
Precipitation: 0.00 in    
Historical Graphs
 
 
Tabular Data for January 10, 2018
Time Temperature Dew Point Pressure Wind Wind Speed Wind Gust Humidity Rainfall Rate (Hourly) solar Conditions
TemperatureF °F DewpointF °F PressureIn in Calm     Humidity% HourlyPrecipIn in SolarRadiationWatts/m^2 W/m2 Conditions
01:06 73.9 °F 43.0 °F 29.67 in Calm   2.0 mph 33% 0.00 in 0.0 W/m2
01:57 72.7 °F 44.2 °F 29.67 in SSW 2.9 mph 3.0 mph 36% 0.00 in 0.0 W/m2
05:32 71.6 °F 27.1 °F 29.69 in ESE 0.9 mph 3.0 mph 19% 0.00 in 0.0 W/m2
06:21 68.4 °F 29.1 °F 29.70 in Calm   1.0 mph 23% 0.00 in 5.0 W/m2
06:34 67.3 °F 30.2 °F 29.70 in Calm   1.0 mph 25% 0.00 in 11.0 W/m2
07:15 66.0 °F 35.2 °F 29.71 in Calm     32% 0.00 in 21.0 W/m2
08:38 78.6 °F 28.8 °F 29.71 in East 2.9 mph 4.0 mph 16% 0.00 in 524.0 W/m2
12:02 90.9 °F 26.8 °F 29.67 in NNW 4.0 mph 11.0 mph 10% 0.00 in 1056.0 W/m2
13:48 93.9 °F 26.6 °F 29.64 in North 8.1 mph 12.0 mph 9% 0.00 in 1053.0 W/m2
14:53 97.0 °F 25.9 °F 29.61 in North 4.9 mph 9.0 mph 8% 0.00 in 1056.0 W/m2
15:12 97.9 °F 26.6 °F 29.60 in Calm   5.0 mph 8% 0.00 in 993.0 W/m2
15:39 98.1 °F 23.5 °F 29.59 in WNW 2.9 mph 4.0 mph 7% 0.00 in 958.0 W/m2
15:50 97.9 °F 26.6 °F 29.58 in SW 0.9 mph 6.0 mph 8% 0.00 in 958.0 W/m2
16:10 97.3 °F 26.2 °F 29.57 in East 0.9 mph 8.0 mph 8% 0.00 in 162.0 W/m2
16:20 95.7 °F 25.0 °F 29.57 in NNW 2.0 mph 5.0 mph 8% 0.00 in 176.0 W/m2
16:21 95.5 °F 27.7 °F 29.57 in Calm   4.0 mph 9% 0.00 in 176.0 W/m2
16:22 95.5 °F 25.0 °F 29.57 in SE 2.0 mph 3.0 mph 8% 0.00 in 171.0 W/m2
16:24 95.5 °F 25.0 °F 29.57 in ENE 2.0 mph 5.0 mph 8% 0.00 in 163.0 W/m2
16:27 95.4 °F 27.7 °F 29.57 in Calm   3.0 mph 9% 0.00 in 160.0 W/m2
16:28 95.4 °F 24.8 °F 29.57 in NNE 4.0 mph 5.0 mph 8% 0.00 in 160.0 W/m2
16:31 95.2 °F 24.6 °F 29.57 in Calm   3.0 mph 8% 0.00 in 165.0 W/m2
16:36 94.8 °F 27.1 °F 29.57 in Calm   2.0 mph 9% 0.00 in 160.0 W/m2
16:37 94.8 °F 27.1 °F 29.57 in WNW 0.9 mph 1.0 mph 9% 0.00 in 167.0 W/m2
16:43 95.0 °F 27.3 °F 29.57 in NNE 2.9 mph 4.0 mph 9% 0.00 in 770.0 W/m2
16:44 95.2 °F 24.6 °F 29.57 in Calm   4.0 mph 8% 0.00 in 756.0 W/m2
16:46 95.4 °F 24.8 °F 29.57 in West 0.9 mph 3.0 mph 8% 0.00 in 756.0 W/m2
16:47 95.4 °F 27.7 °F 29.57 in West 0.9 mph 3.0 mph 9% 0.00 in 308.0 W/m2
16:52 95.5 °F 25.0 °F 29.56 in Calm   3.0 mph 8% 0.00 in 176.0 W/m2
16:57 95.4 °F 24.8 °F 29.56 in Calm   2.0 mph 8% 0.00 in 202.0 W/m2
17:02 94.8 °F 27.1 °F 29.56 in Calm   3.0 mph 9% 0.00 in 162.0 W/m2
17:03 94.8 °F 24.4 °F 29.56 in NNE 0.9 mph 3.0 mph 8% 0.00 in 162.0 W/m2
17:05 94.6 °F 24.3 °F 29.56 in Calm   3.0 mph 8% 0.00 in 156.0 W/m2
17:07 94.5 °F 27.0 °F 29.56 in North 0.9 mph 2.0 mph 9% 0.00 in 162.0 W/m2
17:13 94.3 °F 26.8 °F 29.56 in Calm   3.0 mph 9% 0.00 in 149.0 W/m2
17:17 94.3 °F 23.9 °F 29.56 in ENE 4.0 mph 5.0 mph 8% 0.00 in 144.0 W/m2
17:20 93.9 °F 26.6 °F 29.56 in NE 0.9 mph 4.0 mph 9% 0.00 in 144.0 W/m2
17:25 93.7 °F 26.4 °F 29.56 in Calm   1.0 mph 9% 0.00 in 204.0 W/m2
17:26 93.9 °F 26.6 °F 29.56 in Calm   3.0 mph 9% 0.00 in 141.0 W/m2
17:32 93.6 °F 26.2 °F 29.56 in ESE 2.0 mph 3.0 mph 9% 0.00 in 132.0 W/m2
17:37 93.4 °F 26.1 °F 29.56 in ESE 0.9 mph 2.0 mph 9% 0.00 in 120.0 W/m2
17:41 93.4 °F 23.4 °F 29.56 in Calm   4.0 mph 8% 0.00 in 113.0 W/m2
17:46 93.0 °F 25.9 °F 29.56 in SE 2.0 mph 3.0 mph 9% 0.00 in 107.0 W/m2
17:51 92.8 °F 23.0 °F 29.57 in Calm   1.0 mph 8% 0.00 in 102.0 W/m2
17:57 92.7 °F 25.5 °F 29.57 in ESE 2.0 mph 4.0 mph 9% 0.00 in 100.0 W/m2
18:02 92.3 °F 25.3 °F 29.57 in SE 0.9 mph 2.0 mph 9% 0.00 in 90.0 W/m2
18:07 91.9 °F 25.0 °F 29.57 in ENE 4.0 mph 6.0 mph 9% 0.00 in 86.0 W/m2
18:13 91.8 °F 27.5 °F 29.57 in Calm   1.0 mph 10% 0.00 in 76.0 W/m2
18:18 91.6 °F 27.3 °F 29.57 in ENE 2.0 mph 4.0 mph 10% 0.00 in 62.0 W/m2
18:25 91.2 °F 27.1 °F 29.57 in Calm   2.0 mph 10% 0.00 in 77.0 W/m2
18:32 91.2 °F 24.4 °F 29.57 in NE 2.0 mph 2.0 mph 9% 0.00 in 125.0 W/m2
18:37 91.4 °F 24.6 °F 29.58 in East 0.9 mph 3.0 mph 9% 0.00 in 130.0 W/m2
18:42 91.6 °F 27.3 °F 29.58 in Calm   1.0 mph 10% 0.00 in 167.0 W/m2
18:47 91.8 °F 25.0 °F 29.58 in ESE 0.9 mph 4.0 mph 9% 0.00 in 98.0 W/m2
18:53 91.9 °F 25.0 °F 29.58 in SSE 2.0 mph 3.0 mph 9% 0.00 in 40.0 W/m2
18:58 91.8 °F 25.0 °F 29.58 in ESE 2.0 mph 3.0 mph 9% 0.00 in 33.0 W/m2
19:03 91.6 °F 24.8 °F 29.59 in Calm   1.0 mph 9% 0.00 in 26.0 W/m2
19:08 91.4 °F 27.1 °F 29.59 in Calm   1.0 mph 10% 0.00 in 21.0 W/m2
19:16 91.0 °F 27.0 °F 29.59 in SSE 4.0 mph 6.0 mph 10% 0.00 in 16.0 W/m2
19:21 90.7 °F 26.6 °F 29.59 in South 4.9 mph 5.0 mph 10% 0.00 in 11.0 W/m2
19:26 90.1 °F 23.7 °F 29.59 in Calm   5.0 mph 9% 0.00 in 7.0 W/m2
19:31 89.8 °F 25.9 °F 29.59 in SSW 6.0 mph 9.0 mph 10% 0.00 in 5.0 W/m2
19:34 89.4 °F 25.7 °F 29.59 in SSW 2.9 mph 11.0 mph 10% 0.00 in 0.0 W/m2
19:39 89.1 °F 25.3 °F 29.60 in SSW 0.9 mph 5.0 mph 10% 0.00 in 0.0 W/m2
19:45 88.7 °F 25.2 °F 29.60 in Calm   4.0 mph 10% 0.00 in 0.0 W/m2
19:50 88.5 °F 25.0 °F 29.60 in WSW 0.9 mph 6.0 mph 10% 0.00 in 0.0 W/m2
19:55 88.2 °F 24.8 °F 29.60 in SSW 2.0 mph 5.0 mph 10% 0.00 in 0.0 W/m2
20:00 88.2 °F 24.8 °F 29.60 in SW 0.9 mph 5.0 mph 10% 0.00 in 0.0 W/m2
20:05 88.0 °F 24.6 °F 29.60 in SE 4.9 mph 9.0 mph 10% 0.00 in 0.0 W/m2
20:15 87.6 °F 24.3 °F 29.60 in South 0.9 mph 3.0 mph 10% 0.00 in 0.0 W/m2
20:20 87.4 °F 24.3 °F 29.61 in Calm   2.0 mph 10% 0.00 in 0.0 W/m2
20:25 87.3 °F 26.4 °F 29.61 in ESE 4.0 mph 7.0 mph 11% 0.00 in 0.0 W/m2
20:30 87.1 °F 23.9 °F 29.61 in SE 2.0 mph 2.0 mph 10% 0.00 in 0.0 W/m2
20:41 86.7 °F 25.9 °F 29.62 in Calm   3.0 mph 11% 0.00 in 0.0 W/m2
20:47 86.5 °F 25.9 °F 29.62 in ESE 2.0 mph 3.0 mph 11% 0.00 in 0.0 W/m2
20:57 85.8 °F 27.3 °F 29.62 in SE 2.0 mph 2.0 mph 12% 0.00 in 0.0 W/m2
21:05 84.9 °F 26.6 °F 29.62 in SSE 2.9 mph 3.0 mph 12% 0.00 in 0.0 W/m2
21:10 84.4 °F 26.2 °F 29.62 in Calm   3.0 mph 12% 0.00 in 0.0 W/m2
21:17 83.8 °F 27.7 °F 29.62 in SSE 0.9 mph 2.0 mph 13% 0.00 in 0.0 W/m2
21:28 83.7 °F 25.7 °F 29.63 in SSE 2.9 mph 6.0 mph 12% 0.00 in 0.0 W/m2
21:33 83.8 °F 23.7 °F 29.64 in ESE 4.0 mph 4.0 mph 11% 0.00 in 0.0 W/m2
21:39 84.0 °F 23.9 °F 29.64 in ESE 0.9 mph 5.0 mph 11% 0.00 in 0.0 W/m2
21:49 83.8 °F 23.7 °F 29.65 in Calm   2.0 mph 11% 0.00 in 0.0 W/m2
21:54 83.8 °F 25.9 °F 29.65 in NE 4.0 mph 4.0 mph 12% 0.00 in 0.0 W/m2
22:00 83.7 °F 25.7 °F 29.65 in Calm   5.0 mph 12% 0.00 in 0.0 W/m2
22:05 83.3 °F 25.3 °F 29.66 in North 2.0 mph 6.0 mph 12% 0.00 in 0.0 W/m2
22:11 82.9 °F 25.2 °F 29.66 in Calm   4.0 mph 12% 0.00 in 0.0 W/m2
22:18 82.8 °F 27.0 °F 29.66 in Calm   1.0 mph 13% 0.00 in 0.0 W/m2
22:23 82.8 °F 27.0 °F 29.66 in Calm   3.0 mph 13% 0.00 in 0.0 W/m2
22:28 82.6 °F 26.8 °F 29.66 in NNE 2.0 mph 2.0 mph 13% 0.00 in 0.0 W/m2
22:33 82.4 °F 26.6 °F 29.67 in ENE 0.9 mph 2.0 mph 13% 0.00 in 0.0 W/m2
22:38 82.2 °F 26.4 °F 29.67 in Calm   1.0 mph 13% 0.00 in 0.0 W/m2
22:43 82.0 °F 26.4 °F 29.67 in Calm     13% 0.00 in 0.0 W/m2
22:53 81.7 °F 34.0 °F 29.67 in Calm   1.0 mph 18% 0.00 in 0.0 W/m2
22:58 81.5 °F 35.2 °F 29.68 in Calm     19% 0.00 in 0.0 W/m2
23:11 81.0 °F 37.4 °F 29.68 in Calm     21% 0.00 in 0.0 W/m2
23:16 80.8 °F 38.5 °F 29.68 in Calm   1.0 mph 22% 0.00 in 0.0 W/m2
23:21 80.4 °F 38.1 °F 29.68 in Calm   1.0 mph 22% 0.00 in 0.0 W/m2
23:30 80.1 °F 40.1 °F 29.68 in Calm   2.0 mph 24% 0.00 in 0.0 W/m2
23:37 79.9 °F 41.0 °F 29.67 in Calm   1.0 mph 25% 0.00 in 0.0 W/m2
23:43 79.5 °F 40.6 °F 29.67 in Calm   1.0 mph 25% 0.00 in 0.0 W/m2
23:48 79.3 °F 41.5 °F 29.67 in Calm   2.0 mph 26% 0.00 in 0.0 W/m2
23:53 79.2 °F 42.3 °F 29.67 in Calm     27% 0.00 in 0.0 W/m2
23:58 78.6 °F 41.9 °F 29.67 in Calm     27% 0.00 in 0.0 W/m2
Olympia, Windhoek, Namibia
Compliments of Weather Underground - 2.25 mb